ES-0109 weather

Aeròdrom de Folgueroles
Folgueroles, Spain

Public forecast

Using degrees Celsius for public forecast. Weather courtesy of forecast.io.

METAR (pilot weather report)

Closest report is Girona Airport, 20.5 nm (38.0 km) E. Retrieved 2019/09/19 17:37 UTC (17 minutes ago):

LEGE 191737Z 26003KT 210V290 9999 RA FEW040TCU SCT055 22/16 Q1018

TAF (pilot weather forecast)

Closest forecast is Girona Airport, 20.5 nm (38.0 km) E. Retrieved 2019/09/19 12:27 UTC (5 hours ago):

TAF LEGE 191100Z 1912/2012 VRB03KT 9999 FEW040 TX30/1913Z TN16/2005Z TEMPO 1912/1918 20009KT PROB40 TEMPO 1914/1920 32015KT 4000 TSRA FEW030CB